createdAt,value
2018-09-13T00:02:20.951Z,95642.77
2018-09-13T00:04:49.387Z,95638.92
2018-09-13T00:07:17.839Z,95641.23
2018-09-13T00:09:46.284Z,95641.86
2018-09-13T00:12:14.722Z,95630.66
2018-09-13T00:14:43.118Z,95634.45
2018-09-13T00:17:11.550Z,95637.27
2018-09-13T00:19:40.030Z,95635.51
2018-09-13T00:22:08.478Z,95633.78
2018-09-13T00:24:36.937Z,95634.44
2018-09-13T00:27:05.349Z,95642.28
2018-09-13T00:29:33.793Z,95635.59
2018-09-13T00:32:03.049Z,95639.20
2018-09-13T00:34:31.504Z,95642.94
2018-09-13T00:37:00.006Z,95636.36
2018-09-13T00:39:28.418Z,95635.55
2018-09-13T00:41:56.854Z,95638.63
2018-09-13T00:44:25.285Z,95631.84
2018-09-13T00:46:53.747Z,95628.61
2018-09-13T00:49:22.174Z,95632.76
2018-09-13T00:51:51.147Z,95627.38
2018-09-13T00:54:19.575Z,95631.48
2018-09-13T00:56:47.970Z,95634.67
2018-09-13T00:59:16.410Z,95639.37
2018-09-13T01:01:44.843Z,95641.02
2018-09-13T01:04:13.290Z,95640.00
2018-09-13T01:06:41.730Z,95634.52
2018-09-13T01:09:10.855Z,95633.27
2018-09-13T01:11:39.294Z,95629.05
2018-09-13T01:14:07.762Z,95631.97
2018-09-13T01:16:36.178Z,95627.09
2018-09-13T01:19:04.930Z,95625.72
2018-09-13T01:21:33.421Z,95622.84
2018-09-13T01:24:02.004Z,95622.44
2018-09-13T01:26:30.415Z,95624.59
2018-09-13T01:28:58.863Z,95615.98
2018-09-13T01:31:27.270Z,95616.39
2018-09-13T01:33:55.708Z,95615.56
2018-09-13T01:36:24.098Z,95607.14
2018-09-13T01:38:52.609Z,95596.88
2018-09-13T01:41:21.026Z,95597.66
2018-09-13T01:43:49.460Z,95598.39
2018-09-13T01:46:17.914Z,95592.27
2018-09-13T01:48:46.330Z,95596.81
2018-09-13T01:51:14.776Z,95597.06
2018-09-13T01:53:43.237Z,95598.25
2018-09-13T01:56:11.731Z,95591.98
2018-09-13T01:58:40.137Z,95591.74
2018-09-13T02:01:08.590Z,95583.19
2018-09-13T02:03:37.018Z,95585.73
2018-09-13T02:06:05.478Z,95593.98
2018-09-13T02:08:33.917Z,95599.02
2018-09-13T02:11:02.945Z,95594.91
2018-09-13T02:13:31.380Z,95593.12
2018-09-13T02:15:59.833Z,95590.22
2018-09-13T02:18:28.234Z,95584.70
2018-09-13T02:20:56.679Z,95584.45
2018-09-13T02:23:25.085Z,95588.52
2018-09-13T02:25:53.553Z,95580.60
2018-09-13T02:28:21.970Z,95580.83
2018-09-13T02:30:50.616Z,95586.07
2018-09-13T02:33:19.043Z,95581.14
2018-09-13T02:35:47.511Z,95579.37
2018-09-13T02:38:15.946Z,95579.84
2018-09-13T02:40:44.434Z,95578.25
2018-09-13T02:43:12.880Z,95580.35
2018-09-13T02:45:41.354Z,95580.34
2018-09-13T02:48:09.826Z,95584.84
2018-09-13T02:50:38.263Z,95581.47
2018-09-13T02:53:07.026Z,95587.80
2018-09-13T02:55:35.442Z,95580.95
2018-09-13T02:58:03.885Z,95587.84
2018-09-13T03:00:32.308Z,95593.39
2018-09-13T03:03:00.753Z,95601.55
2018-09-13T03:05:29.194Z,95613.58
2018-09-13T03:07:57.642Z,95629.12
2018-09-13T03:10:26.111Z,95640.34
2018-09-13T03:12:54.633Z,95649.98
2018-09-13T03:15:23.074Z,95647.42
2018-09-13T03:17:51.525Z,95655.86
2018-09-13T03:20:20.262Z,95660.28
2018-09-13T03:22:48.716Z,95646.98
2018-09-13T03:25:17.146Z,95658.06
2018-09-13T03:27:45.598Z,95660.23
2018-09-13T03:30:14.557Z,95662.70
2018-09-13T03:32:43.556Z,95660.39
2018-09-13T03:35:11.985Z,95654.15
2018-09-13T03:37:40.399Z,95656.13
2018-09-13T03:40:16.927Z,95657.92
2018-09-13T03:42:45.881Z,95646.05
2018-09-13T03:45:14.702Z,95645.22
2018-09-13T03:47:43.476Z,95649.67
2018-09-13T03:53:16.241Z,95632.52
2018-09-13T03:55:45.015Z,95637.09
2018-09-13T03:58:13.742Z,95636.61
2018-09-13T04:00:42.519Z,95633.29
2018-09-13T04:03:11.360Z,95638.89
2018-09-13T04:05:40.139Z,95637.72
2018-09-13T04:08:09.028Z,95640.52
2018-09-13T04:10:37.881Z,95644.05
2018-09-13T04:13:06.590Z,95648.50
2018-09-13T04:15:35.251Z,95644.84
2018-09-13T04:18:03.653Z,95642.75
2018-09-13T04:20:32.065Z,95647.01
2018-09-13T04:23:00.634Z,95646.32
2018-09-13T04:25:29.026Z,95639.45
2018-09-13T04:27:57.468Z,95649.17
2018-09-13T04:30:25.893Z,95651.80
2018-09-13T04:32:54.357Z,95642.73
2018-09-13T04:35:22.785Z,95648.81
2018-09-13T04:37:51.253Z,95654.44
2018-09-13T04:40:19.664Z,95643.77
2018-09-13T04:42:48.125Z,95650.15
2018-09-13T04:45:16.551Z,95652.31
2018-09-13T04:47:44.983Z,95655.74
2018-09-13T04:50:13.423Z,95660.38
2018-09-13T04:52:41.869Z,95647.53
2018-09-13T04:55:10.289Z,95656.91
2018-09-13T04:57:38.761Z,95653.95
2018-09-13T05:03:10.833Z,95648.66
2018-09-13T05:05:39.294Z,95642.20
2018-09-13T05:08:07.718Z,95645.83
2018-09-13T05:10:36.141Z,95641.18
2018-09-13T05:13:04.593Z,95634.93
2018-09-13T05:15:33.021Z,95635.39
2018-09-13T05:18:01.759Z,95647.12
2018-09-13T05:20:30.190Z,95636.42
2018-09-13T05:22:58.786Z,95622.22
2018-09-13T05:25:27.205Z,95627.48
2018-09-13T05:27:55.602Z,95627.36
2018-09-13T05:30:24.048Z,95627.80
2018-09-13T05:32:52.465Z,95629.20
2018-09-13T05:35:20.898Z,95626.54
2018-09-13T05:37:49.273Z,95629.15
2018-09-13T05:40:17.730Z,95629.95
2018-09-13T05:42:46.162Z,95626.66
2018-09-13T05:45:14.584Z,95628.75
2018-09-13T05:47:42.988Z,95625.93
2018-09-13T05:50:11.467Z,95624.05
2018-09-13T05:52:39.884Z,95625.83
2018-09-13T05:55:08.483Z,95627.75
2018-09-13T05:57:36.881Z,95630.50
2018-09-13T06:00:05.811Z,95631.74
2018-09-13T06:02:34.214Z,95624.32
2018-09-13T06:05:03.305Z,95622.31
2018-09-13T06:07:31.678Z,95621.84
2018-09-13T06:10:00.221Z,95628.64
2018-09-13T06:12:28.637Z,95631.13
2018-09-13T06:14:57.041Z,95632.55
2018-09-13T06:17:25.416Z,95634.13
2018-09-13T06:19:53.897Z,95631.38
2018-09-13T06:22:22.301Z,95626.41
2018-09-13T06:24:50.685Z,95626.85
2018-09-13T06:27:19.086Z,95622.24
2018-09-13T06:29:47.454Z,95625.09
2018-09-13T06:32:15.869Z,95620.74
2018-09-13T06:34:44.253Z,95629.48
2018-09-13T06:37:12.659Z,95638.21
2018-09-13T06:39:41.044Z,95638.60
2018-09-13T06:42:09.482Z,95642.47
2018-09-13T06:44:37.868Z,95640.66
2018-09-13T06:47:06.516Z,95640.27
2018-09-13T06:49:34.897Z,95639.04
2018-09-13T06:52:03.598Z,95632.02
2018-09-13T06:54:31.981Z,95638.12
2018-09-13T06:57:00.387Z,95640.86
2018-09-13T06:59:28.761Z,95638.29
2018-09-13T07:01:57.189Z,95646.23
2018-09-13T07:04:25.577Z,95646.84
2018-09-13T07:06:53.999Z,95645.28
2018-09-13T07:09:22.442Z,95658.89
2018-09-13T07:11:50.886Z,95662.50
2018-09-13T07:14:19.257Z,95665.42
2018-09-13T07:16:47.686Z,95665.47
2018-09-13T07:19:16.094Z,95667.70
2018-09-13T07:21:44.470Z,95673.23
2018-09-13T07:24:12.902Z,95682.62
2018-09-13T07:26:41.593Z,95679.80
2018-09-13T07:29:10.042Z,95683.78
2018-09-13T07:31:38.469Z,95686.77
2018-09-13T07:34:07.562Z,95676.13
2018-09-13T07:36:36.016Z,95680.57
2018-09-13T07:39:06.806Z,95679.41
2018-09-13T07:41:35.177Z,95681.80
2018-09-13T07:44:03.619Z,95674.59
2018-09-13T07:46:32.004Z,95680.94
2018-09-13T07:49:00.460Z,95681.03
2018-09-13T07:51:28.810Z,95681.06
2018-09-13T07:53:57.902Z,95686.58
2018-09-13T07:56:26.415Z,95686.82
2018-09-13T07:58:54.817Z,95685.77
2018-09-13T08:01:23.186Z,95686.66
2018-09-13T08:03:51.662Z,95691.72
2018-09-13T08:06:20.043Z,95687.56
2018-09-13T08:08:48.526Z,95694.20
2018-09-13T08:11:16.933Z,95702.32
2018-09-13T08:13:45.310Z,95695.29
2018-09-13T08:16:13.741Z,95704.54
2018-09-13T08:18:42.113Z,95697.38
2018-09-13T08:21:10.603Z,95696.59
2018-09-13T08:23:38.985Z,95698.83
2018-09-13T08:26:07.466Z,95703.70
2018-09-13T08:28:35.857Z,95701.50
2018-09-13T08:31:04.370Z,95701.26
2018-09-13T08:33:32.752Z,95703.08
2018-09-13T08:36:02.040Z,95701.50
2018-09-13T08:38:30.458Z,95701.14
2018-09-13T08:40:58.917Z,95704.23
2018-09-13T08:43:27.351Z,95700.45
2018-09-13T08:45:55.778Z,95701.49
2018-09-13T08:48:24.165Z,95698.23
2018-09-13T08:50:52.633Z,95691.38
2018-09-13T08:53:21.005Z,95688.61
2018-09-13T08:55:49.405Z,95695.56
2018-09-13T08:58:17.790Z,95692.41
2018-09-13T09:00:46.234Z,95694.44
2018-09-13T09:03:14.605Z,95686.72
2018-09-13T09:05:42.993Z,95681.02
2018-09-13T09:08:11.462Z,95688.95
2018-09-13T09:10:40.391Z,95684.03
2018-09-13T09:13:09.173Z,95679.86
2018-09-13T09:15:37.585Z,95676.42
2018-09-13T09:18:06.449Z,95679.34
2018-09-13T09:20:34.912Z,95676.42
2018-09-13T09:23:03.668Z,95671.03
2018-09-13T09:25:32.093Z,95666.97
2018-09-13T09:28:06.849Z,95663.62
2018-09-13T09:30:35.417Z,95661.45
2018-09-13T09:33:03.837Z,95665.72
2018-09-13T09:35:32.272Z,95664.73
2018-09-13T09:38:00.696Z,95658.69
2018-09-13T09:40:29.109Z,95655.43
2018-09-13T09:42:57.536Z,95657.14
2018-09-13T09:45:25.918Z,95651.27
2018-09-13T09:47:54.384Z,95655.68
2018-09-13T09:50:22.790Z,95658.16
2018-09-13T09:52:51.171Z,95655.68
2018-09-13T09:55:22.364Z,95655.30
2018-09-13T09:57:50.951Z,95655.41
2018-09-13T10:00:23.478Z,95661.10
2018-09-13T10:02:51.902Z,95665.09
2018-09-13T10:05:20.265Z,95663.47
2018-09-13T10:07:48.665Z,95660.45
2018-09-13T10:10:17.153Z,95661.61
2018-09-13T10:12:45.570Z,95663.36
2018-09-13T10:15:19.418Z,95662.67
2018-09-13T10:17:52.907Z,95662.40
2018-09-13T10:20:26.477Z,95663.52
2018-09-13T10:23:00.098Z,95661.46
2018-09-13T10:25:33.640Z,95667.70
2018-09-13T10:28:07.145Z,95659.84
2018-09-13T10:30:40.954Z,95658.41
2018-09-13T10:33:14.587Z,95654.11
2018-09-13T10:35:48.354Z,95648.69
2018-09-13T10:38:21.994Z,95651.55
2018-09-13T10:40:55.758Z,95651.50
2018-09-13T10:43:29.489Z,95650.36
2018-09-13T10:46:02.991Z,95656.51
2018-09-13T10:48:32.661Z,95651.24
2018-09-13T10:51:11.166Z,95652.66
2018-09-13T10:53:44.042Z,95649.45
2018-09-13T10:56:12.529Z,95647.95
2018-09-13T10:58:41.270Z,95652.55
2018-09-13T11:01:09.694Z,95646.53
2018-09-13T11:03:38.078Z,95644.38
2018-09-13T11:06:06.553Z,95649.36
2018-09-13T11:08:34.933Z,95643.61
2018-09-13T11:11:04.443Z,95633.71
2018-09-13T11:14:06.669Z,95631.67
2018-09-13T11:16:35.070Z,95632.33
2018-09-13T11:19:03.474Z,95623.39
2018-09-13T11:21:31.890Z,95621.60
2018-09-13T11:24:00.270Z,95610.94
2018-09-13T11:26:28.714Z,95609.13
2018-09-13T11:28:57.152Z,95614.73
2018-09-13T11:31:25.538Z,95610.45
2018-09-13T11:33:53.946Z,95610.14
2018-09-13T11:36:22.425Z,95604.55
2018-09-13T11:38:50.869Z,95604.02
2018-09-13T11:41:19.594Z,95602.80
2018-09-13T11:43:48.017Z,95603.42
2018-09-13T11:46:16.485Z,95601.81
2018-09-13T11:48:44.901Z,95601.71
2018-09-13T11:51:13.274Z,95598.95
2018-09-13T11:53:41.680Z,95595.47
2018-09-13T11:56:10.082Z,95593.45
2018-09-13T11:58:38.548Z,95589.37
2018-09-13T12:01:06.961Z,95589.77
2018-09-13T12:03:35.385Z,95581.69
2018-09-13T12:06:03.769Z,95578.13
2018-09-13T12:08:32.189Z,95571.91
2018-09-13T12:11:00.609Z,95574.67
2018-09-13T12:13:29.082Z,95574.77
2018-09-13T12:15:57.493Z,95578.97
2018-09-13T12:18:25.892Z,95574.86
2018-09-13T12:20:54.301Z,95567.46
2018-09-13T12:23:22.672Z,95567.20
2018-09-13T12:25:51.102Z,95566.46
2018-09-13T12:28:19.493Z,95558.61
2018-09-13T12:30:47.897Z,95562.81
2018-09-13T12:33:16.466Z,95560.54
2018-09-13T12:35:44.881Z,95558.48
2018-09-13T12:38:13.306Z,95552.78
2018-09-13T12:40:41.716Z,95554.02
2018-09-13T12:43:10.114Z,95549.20
2018-09-13T12:45:38.525Z,95550.34
2018-09-13T12:48:07.158Z,95548.19
2018-09-13T12:50:35.569Z,95549.80
2018-09-13T12:53:04.835Z,95552.16
2018-09-13T12:55:38.539Z,95541.30
2018-09-13T12:58:06.945Z,95538.95
2018-09-13T13:00:35.382Z,95543.20
2018-09-13T13:03:03.769Z,95539.81
2018-09-13T13:05:32.426Z,95537.13
2018-09-13T13:08:00.809Z,95533.25
2018-09-13T13:10:29.218Z,95527.39
2018-09-13T13:12:57.645Z,95525.28
2018-09-13T13:15:26.053Z,95524.25
2018-09-13T13:17:54.465Z,95519.80
2018-09-13T13:20:22.899Z,95513.16
2018-09-13T13:22:51.337Z,95510.44
2018-09-13T13:25:19.845Z,95503.49
2018-09-13T13:27:48.379Z,95504.47
2018-09-13T13:30:16.843Z,95498.33
2018-09-13T13:32:45.286Z,95496.09
2018-09-13T13:35:13.730Z,95495.06
2018-09-13T13:37:42.174Z,95489.22
2018-09-13T13:40:10.614Z,95484.09
2018-09-13T13:42:39.126Z,95480.84
2018-09-13T13:45:07.548Z,95479.95
2018-09-13T13:47:36.039Z,95472.85
2018-09-13T13:50:04.485Z,95476.19
2018-09-13T13:52:32.877Z,95469.52
2018-09-13T13:55:01.298Z,95468.99
2018-09-13T13:57:29.746Z,95464.14
2018-09-13T13:59:58.242Z,95463.84
2018-09-13T14:02:27.409Z,95456.23
2018-09-13T14:04:55.850Z,95445.84
2018-09-13T14:07:24.278Z,95449.73
2018-09-13T14:09:52.919Z,95451.28
2018-09-13T14:12:21.157Z,95455.52
2018-09-13T14:14:49.639Z,95444.09
2018-09-13T14:17:18.041Z,95441.58
2018-09-13T14:19:46.462Z,95437.04
2018-09-13T14:22:14.862Z,95437.25
2018-09-13T14:24:43.298Z,95439.36
2018-09-13T14:27:11.680Z,95433.70
2018-09-13T14:29:40.099Z,95431.16
2018-09-13T14:32:08.569Z,95435.64
2018-09-13T14:34:36.982Z,95444.27
2018-09-13T14:37:05.413Z,95443.09
2018-09-13T14:39:33.841Z,95446.11
2018-09-13T14:42:03.058Z,95444.57
2018-09-13T14:44:31.473Z,95450.41
2018-09-13T14:46:59.907Z,95454.66
2018-09-13T14:49:28.325Z,95455.80
2018-09-13T14:51:56.735Z,95467.57
2018-09-13T14:54:25.130Z,95466.06
2018-09-13T14:56:53.586Z,95468.05
2018-09-13T14:59:21.965Z,95467.48
2018-09-13T15:01:50.382Z,95459.47
2018-09-13T15:04:18.761Z,95457.67
2018-09-13T15:06:47.192Z,95456.92
2018-09-13T15:09:15.614Z,95454.62
2018-09-13T15:11:44.057Z,95458.71
2018-09-13T15:14:12.441Z,95465.21
2018-09-13T15:16:40.857Z,95468.19
2018-09-13T15:19:09.228Z,95468.14
2018-09-13T15:21:37.632Z,95466.08
2018-09-13T15:24:06.017Z,95482.17
2018-09-13T15:26:34.434Z,95476.05
2018-09-13T15:29:02.971Z,95487.06
2018-09-13T15:31:31.391Z,95486.19
2018-09-13T15:33:59.774Z,95483.17
2018-09-13T15:36:28.152Z,95495.16
2018-09-13T15:38:56.574Z,95488.11
2018-09-13T15:41:24.957Z,95489.68
2018-09-13T15:43:53.916Z,95497.44
2018-09-13T15:46:22.290Z,95507.84
2018-09-13T15:48:50.698Z,95504.95
2018-09-13T15:51:19.093Z,95500.14
2018-09-13T15:53:47.517Z,95501.84
2018-09-13T15:56:15.930Z,95513.44
2018-09-13T15:58:44.382Z,95509.16
2018-09-13T16:01:12.786Z,95514.05
2018-09-13T16:03:41.189Z,95516.70
2018-09-13T16:06:09.553Z,95523.40
2018-09-13T16:08:37.989Z,95517.58
2018-09-13T16:11:06.474Z,95517.34
2018-09-13T16:13:34.895Z,95515.82
2018-09-13T16:16:03.457Z,95515.65
2018-09-13T16:18:31.993Z,95512.17
2018-09-13T16:21:00.446Z,95515.41
2018-09-13T16:23:28.814Z,95519.18
2018-09-13T16:25:57.198Z,95514.30
2018-09-13T16:28:25.622Z,95513.56
2018-09-13T16:30:54.046Z,95508.44
2018-09-13T16:33:22.438Z,95503.84
2018-09-13T16:35:53.209Z,95488.03
2018-09-13T16:38:29.955Z,95490.56
2018-09-13T16:41:04.530Z,95487.59
2018-09-13T16:46:08.528Z,95486.32
2018-09-13T16:48:42.077Z,95483.52
2018-09-13T16:51:10.506Z,95472.89
2018-09-13T16:53:38.937Z,95474.30
2018-09-13T16:56:07.713Z,95464.38
2018-09-13T16:58:42.520Z,95472.45
2018-09-13T17:01:10.949Z,95475.06
2018-09-13T17:03:39.414Z,95476.39
2018-09-13T17:06:07.899Z,95483.46
2018-09-13T17:08:36.333Z,95483.05
2018-09-13T17:11:04.802Z,95488.38
2018-09-13T17:13:33.288Z,95488.14
2018-09-13T17:16:01.713Z,95489.78
2018-09-13T17:18:30.141Z,95502.02
2018-09-13T17:20:58.673Z,95500.38
2018-09-13T17:23:28.119Z,95500.08
2018-09-13T17:25:56.631Z,95498.65
2018-09-13T17:28:25.137Z,95490.95
2018-09-13T17:30:53.610Z,95493.18
2018-09-13T17:33:22.054Z,95496.50
2018-09-13T17:35:50.450Z,95488.22
2018-09-13T17:38:25.506Z,95488.33
2018-09-13T17:40:53.917Z,95487.08
2018-09-13T17:43:22.400Z,95481.86
2018-09-13T17:45:50.926Z,95482.73
2018-09-13T17:48:19.363Z,95491.19
2018-09-13T17:50:47.758Z,95483.09
2018-09-13T17:53:16.273Z,95483.66
2018-09-13T17:55:44.693Z,95488.59
2018-09-13T17:58:13.142Z,95480.95
2018-09-13T18:00:41.546Z,95482.14
2018-09-13T18:03:10.047Z,95488.69
2018-09-13T18:05:41.357Z,95490.99
2018-09-13T18:08:09.788Z,95496.48
2018-09-13T18:10:38.218Z,95511.52
2018-09-13T18:13:06.986Z,95520.28
2018-09-13T18:15:35.382Z,95523.50
2018-09-13T18:18:03.857Z,95521.24
2018-09-13T18:20:32.344Z,95524.54
2018-09-13T18:23:00.717Z,95530.32
2018-09-13T18:25:29.204Z,95538.31
2018-09-13T18:27:57.621Z,95551.83
2018-09-13T18:30:26.635Z,95553.84
2018-09-13T18:32:55.282Z,95561.41
2018-09-13T18:35:23.733Z,95561.08
2018-09-13T18:37:52.132Z,95565.67
2018-09-13T18:40:20.565Z,95570.59
2018-09-13T18:42:48.946Z,95581.45
2018-09-13T18:45:17.508Z,95578.83
2018-09-13T18:47:45.862Z,95586.64
2018-09-13T18:50:14.287Z,95589.02
2018-09-13T18:52:42.874Z,95594.17
2018-09-13T18:55:11.329Z,95596.67
2018-09-13T18:57:39.713Z,95598.30
2018-09-13T19:00:08.196Z,95601.08
2018-09-13T19:02:36.567Z,95603.42
2018-09-13T19:05:05.220Z,95605.92
2018-09-13T19:07:33.597Z,95601.14
2018-09-13T19:10:02.050Z,95595.27
2018-09-13T19:12:30.453Z,95592.71
2018-09-13T19:14:58.850Z,95598.23
2018-09-13T19:17:27.302Z,95606.38
2018-09-13T19:19:55.677Z,95600.77
2018-09-13T19:22:24.652Z,95602.80
2018-09-13T19:24:53.326Z,95607.44
2018-09-13T19:27:21.749Z,95604.31
2018-09-13T19:29:50.389Z,95606.38
2018-09-13T19:32:18.847Z,95598.52
2018-09-13T19:34:47.264Z,95597.56
2018-09-13T19:37:15.934Z,95597.87
2018-09-13T19:39:44.474Z,95599.27
2018-09-13T19:42:14.517Z,95606.92
2018-09-13T19:44:42.994Z,95603.11
2018-09-13T19:47:11.520Z,95608.42
2018-09-13T19:49:39.929Z,95609.29
2018-09-13T19:52:08.380Z,95611.48
2018-09-13T19:54:36.973Z,95606.23
2018-09-13T19:57:05.678Z,95605.10
2018-09-13T19:59:34.061Z,95608.91
2018-09-13T20:02:02.923Z,95611.73
2018-09-13T20:04:31.444Z,95618.69
2018-09-13T20:06:59.829Z,95619.52
2018-09-13T20:09:28.293Z,95624.98
2018-09-13T20:11:56.796Z,95615.08
2018-09-13T20:14:25.710Z,95615.29
2018-09-13T20:16:54.118Z,95625.55
2018-09-13T20:19:22.622Z,95620.80
2018-09-13T20:21:51.034Z,95624.30
2018-09-13T20:24:19.477Z,95624.50
2018-09-13T20:26:47.893Z,95621.88
2018-09-13T20:29:16.326Z,95622.82
2018-09-13T20:31:44.728Z,95616.47
2018-09-13T20:34:13.206Z,95615.80
2018-09-13T20:36:41.637Z,95619.92
2018-09-13T20:39:11.140Z,95620.25
2018-09-13T20:41:39.777Z,95623.89
2018-09-13T20:44:08.730Z,95621.91
2018-09-13T20:46:37.153Z,95621.06
2018-09-13T20:49:05.905Z,95617.94
2018-09-13T20:51:34.357Z,95616.47
2018-09-13T20:54:02.916Z,95617.29
2018-09-13T20:56:31.366Z,95615.14
2018-09-13T20:59:00.400Z,95618.09
2018-09-13T21:01:28.857Z,95616.47
2018-09-13T21:03:57.280Z,95614.81
2018-09-13T21:06:25.673Z,95618.12
2018-09-13T21:08:54.066Z,95615.51
2018-09-13T21:11:22.554Z,95620.44
2018-09-13T21:13:51.001Z,95620.55
2018-09-13T21:16:19.427Z,95620.08
2018-09-13T21:18:49.427Z,95617.61
2018-09-13T21:21:17.857Z,95620.91
2018-09-13T21:23:46.266Z,95618.58
2018-09-13T21:26:14.685Z,95623.36
2018-09-13T21:28:43.097Z,95624.37
2018-09-13T21:31:11.497Z,95616.64
2018-09-13T21:33:39.886Z,95616.16
2018-09-13T21:36:08.309Z,95620.31
2018-09-13T21:38:36.722Z,95620.31
2018-09-13T21:41:05.171Z,95619.17
2018-09-13T21:43:33.599Z,95619.53
2018-09-13T21:46:02.076Z,95619.68
2018-09-13T21:48:30.455Z,95616.56
2018-09-13T21:50:58.882Z,95622.45
2018-09-13T21:53:27.283Z,95616.50
2018-09-13T21:55:55.765Z,95613.03
2018-09-13T21:58:24.161Z,95614.34
2018-09-13T22:00:52.725Z,95612.52
2018-09-13T22:03:21.151Z,95616.80
2018-09-13T22:05:49.541Z,95615.16
2018-09-13T22:08:17.982Z,95609.05
2018-09-13T22:10:46.437Z,95613.85
2018-09-13T22:13:14.857Z,95613.68
2018-09-13T22:15:43.241Z,95611.48
2018-09-13T22:18:11.685Z,95613.42
2018-09-13T22:20:40.072Z,95614.49
2018-09-13T22:23:08.490Z,95615.94
2018-09-13T22:25:36.886Z,95620.11
2018-09-13T22:28:05.358Z,95622.98
2018-09-13T22:30:33.749Z,95626.16
2018-09-13T22:33:02.914Z,95621.76
2018-09-13T22:35:32.073Z,95621.59
2018-09-13T22:38:00.497Z,95613.87
2018-09-13T22:40:28.883Z,95621.59
2018-09-13T22:42:57.341Z,95611.88
2018-09-13T22:45:25.717Z,95611.42
2018-09-13T22:47:54.146Z,95617.66
2018-09-13T22:50:22.572Z,95620.18
2018-09-13T22:52:50.987Z,95613.98
2018-09-13T22:55:19.401Z,95610.55
2018-09-13T22:57:47.814Z,95615.30
2018-09-13T23:00:16.250Z,95615.42
2018-09-13T23:02:47.765Z,95614.95
2018-09-13T23:05:17.014Z,95621.03
2018-09-13T23:07:45.601Z,95616.73
2018-09-13T23:10:14.924Z,95618.87
2018-09-13T23:12:43.415Z,95619.55
2018-09-13T23:15:11.844Z,95612.45
2018-09-13T23:17:40.297Z,95620.53
2018-09-13T23:20:08.750Z,95615.45
2018-09-13T23:22:37.149Z,95611.98
2018-09-13T23:25:05.606Z,95612.29
2018-09-13T23:27:33.989Z,95607.83
2018-09-13T23:30:02.983Z,95610.78
2018-09-13T23:32:31.363Z,95609.60
2018-09-13T23:34:59.777Z,95612.58
2018-09-13T23:37:28.168Z,95612.59
2018-09-13T23:39:56.892Z,95619.49
2018-09-13T23:42:24.972Z,95622.48
2018-09-13T23:44:53.649Z,95621.38
2018-09-13T23:47:22.026Z,95622.03
2018-09-13T23:49:50.426Z,95623.55
2018-09-13T23:52:18.858Z,95626.86
2018-09-13T23:54:47.229Z,95617.14
2018-09-13T23:57:15.658Z,95623.89
2018-09-13T23:59:44.032Z,95628.48
